Terminal Aerodrome Forecast
Issued by NWS Cleveland, OH

Home | Current Version | Previous Version | Graphics & Text | Print | Product List | Glossary On
Versions: 1 2 3 4 5 6 7 8 9 10 11 12 13 14 15 16 17 18 19 20 21
000
FTUS41 KCLE 200500
TAFERI
TAF
KERI 200532Z 2006/2106 17012KT P6SM VCSH SCT050 OVC150
      TEMPO 2007/2009 3SM -TSRA BR SCT025 OVC035CB
     FM201000 17008KT P6SM BKN035 OVC150
     FM201700 22010KT P6SM VCTS BKN040CB OVC150
     FM202300 21008KT P6SM SCT040 BKN150=

USA.gov is the U.S. government's official web portal to all federal, state and local government web resources and services.